sensor_id;sensor_type;location;lat;lon;timestamp;temperature;humidity
546;DHT22;259;53.304;9.816;2023-05-14T00:01:33;19.30;72.30
546;DHT22;259;53.304;9.816;2023-05-14T00:03:59;19.30;72.30
546;DHT22;259;53.304;9.816;2023-05-14T00:06:25;19.30;72.30
546;DHT22;259;53.304;9.816;2023-05-14T00:08:50;19.20;72.20
546;DHT22;259;53.304;9.816;2023-05-14T00:11:16;19.20;72.20
546;DHT22;259;53.304;9.816;2023-05-14T00:13:42;19.20;72.20
546;DHT22;259;53.304;9.816;2023-05-14T00:16:07;19.20;72.20
546;DHT22;259;53.304;9.816;2023-05-14T00:18:33;19.20;72.20
546;DHT22;259;53.304;9.816;2023-05-14T00:20:59;19.20;72.30
546;DHT22;259;53.304;9.816;2023-05-14T00:23:24;19.20;72.30
546;DHT22;259;53.304;9.816;2023-05-14T00:25:50;19.20;72.40
546;DHT22;259;53.304;9.816;2023-05-14T00:28:16;19.10;72.20
546;DHT22;259;53.304;9.816;2023-05-14T00:30:41;19.10;72.20
546;DHT22;259;53.304;9.816;2023-05-14T00:33:07;19.10;72.20
546;DHT22;259;53.304;9.816;2023-05-14T00:35:33;19.10;72.30
546;DHT22;259;53.304;9.816;2023-05-14T00:38:00;19.10;72.20
546;DHT22;259;53.304;9.816;2023-05-14T00:40:27;19.00;72.20
546;DHT22;259;53.304;9.816;2023-05-14T00:42:53;19.10;72.30
546;DHT22;259;53.304;9.816;2023-05-14T00:45:19;19.00;72.20
546;DHT22;259;53.304;9.816;2023-05-14T00:47:46;19.00;72.20
546;DHT22;259;53.304;9.816;2023-05-14T00:50:13;19.00;72.30
546;DHT22;259;53.304;9.816;2023-05-14T00:52:39;19.00;72.30
546;DHT22;259;53.304;9.816;2023-05-14T00:55:06;19.00;72.30
546;DHT22;259;53.304;9.816;2023-05-14T00:57:36;19.00;72.30
546;DHT22;259;53.304;9.816;2023-05-14T01:00:03;19.00;72.20
546;DHT22;259;53.304;9.816;2023-05-14T01:02:29;19.00;72.30
546;DHT22;259;53.304;9.816;2023-05-14T01:04:56;18.90;72.10
546;DHT22;259;53.304;9.816;2023-05-14T01:10:00;18.90;72.10
546;DHT22;259;53.304;9.816;2023-05-14T01:12:58;18.90;72.10
546;DHT22;259;53.304;9.816;2023-05-14T01:15:30;18.90;72.10
546;DHT22;259;53.304;9.816;2023-05-14T01:18:05;18.90;72.10
546;DHT22;259;53.304;9.816;2023-05-14T01:20:32;18.80;72.00
546;DHT22;259;53.304;9.816;2023-05-14T01:22:58;18.90;72.20
546;DHT22;259;53.304;9.816;2023-05-14T01:25:25;18.80;72.10
546;DHT22;259;53.304;9.816;2023-05-14T01:30:36;18.80;72.00
546;DHT22;259;53.304;9.816;2023-05-14T01:33:09;18.80;72.00
546;DHT22;259;53.304;9.816;2023-05-14T01:35:38;18.80;72.10
546;DHT22;259;53.304;9.816;2023-05-14T01:38:07;18.80;72.00
546;DHT22;259;53.304;9.816;2023-05-14T01:40:36;18.80;72.10
546;DHT22;259;53.304;9.816;2023-05-14T01:43:03;18.70;71.90
546;DHT22;259;53.304;9.816;2023-05-14T01:45:29;18.70;72.00
546;DHT22;259;53.304;9.816;2023-05-14T01:47:55;18.70;72.00
546;DHT22;259;53.304;9.816;2023-05-14T01:50:22;18.70;72.00
546;DHT22;259;53.304;9.816;2023-05-14T01:52:47;18.70;72.10
546;DHT22;259;53.304;9.816;2023-05-14T01:55:14;18.60;71.90
546;DHT22;259;53.304;9.816;2023-05-14T01:57:40;18.70;72.10
546;DHT22;259;53.304;9.816;2023-05-14T02:00:06;18.60;72.00
546;DHT22;259;53.304;9.816;2023-05-14T02:02:32;18.60;72.70
546;DHT22;259;53.304;9.816;2023-05-14T02:04:58;18.60;72.00
546;DHT22;259;53.304;9.816;2023-05-14T02:07:23;18.60;71.90
546;DHT22;259;53.304;9.816;2023-05-14T02:09:49;18.60;71.90
546;DHT22;259;53.304;9.816;2023-05-14T02:12:15;18.60;71.90
546;DHT22;259;53.304;9.816;2023-05-14T02:14:40;18.60;72.10
546;DHT22;259;53.304;9.816;2023-05-14T02:17:06;18.60;71.90
546;DHT22;259;53.304;9.816;2023-05-14T02:19:32;18.50;71.90
546;DHT22;259;53.304;9.816;2023-05-14T02:21:58;18.50;72.00
546;DHT22;259;53.304;9.816;2023-05-14T02:24:25;18.50;72.10
546;DHT22;259;53.304;9.816;2023-05-14T02:26:51;18.50;72.10
546;DHT22;259;53.304;9.816;2023-05-14T02:29:17;18.50;72.20
546;DHT22;259;53.304;9.816;2023-05-14T02:31:42;18.50;72.20
546;DHT22;259;53.304;9.816;2023-05-14T02:34:08;18.50;72.20
546;DHT22;259;53.304;9.816;2023-05-14T02:36:34;18.40;72.00
546;DHT22;259;53.304;9.816;2023-05-14T02:39:00;18.40;72.00
546;DHT22;259;53.304;9.816;2023-05-14T02:41:26;18.40;72.00
546;DHT22;259;53.304;9.816;2023-05-14T02:43:52;18.40;71.90
546;DHT22;259;53.304;9.816;2023-05-14T02:46:18;18.40;71.90
546;DHT22;259;53.304;9.816;2023-05-14T02:48:44;18.40;71.90
546;DHT22;259;53.304;9.816;2023-05-14T02:51:11;18.40;71.80
546;DHT22;259;53.304;9.816;2023-05-14T02:53:36;18.30;71.80
546;DHT22;259;53.304;9.816;2023-05-14T02:56:02;18.30;71.80
546;DHT22;259;53.304;9.816;2023-05-14T02:58:28;18.30;71.80
546;DHT22;259;53.304;9.816;2023-05-14T03:00:54;18.30;71.70
546;DHT22;259;53.304;9.816;2023-05-14T03:03:20;18.30;71.70
546;DHT22;259;53.304;9.816;2023-05-14T03:05:46;18.30;71.80
546;DHT22;259;53.304;9.816;2023-05-14T03:08:12;18.30;71.80
546;DHT22;259;53.304;9.816;2023-05-14T03:10:37;18.30;71.70
546;DHT22;259;53.304;9.816;2023-05-14T03:13:03;18.20;71.70
546;DHT22;259;53.304;9.816;2023-05-14T03:15:29;18.20;71.70
546;DHT22;259;53.304;9.816;2023-05-14T03:17:55;18.20;71.70
546;DHT22;259;53.304;9.816;2023-05-14T03:20:23;18.20;71.70
546;DHT22;259;53.304;9.816;2023-05-14T03:22:50;18.20;71.70
546;DHT22;259;53.304;9.816;2023-05-14T03:25:16;18.20;71.80
546;DHT22;259;53.304;9.816;2023-05-14T03:27:41;18.20;71.80
546;DHT22;259;53.304;9.816;2023-05-14T03:30:07;18.10;71.60
546;DHT22;259;53.304;9.816;2023-05-14T03:32:33;18.10;71.60
546;DHT22;259;53.304;9.816;2023-05-14T03:34:59;18.10;71.70
546;DHT22;259;53.304;9.816;2023-05-14T03:37:25;18.10;71.80
546;DHT22;259;53.304;9.816;2023-05-14T03:39:50;18.10;71.70
546;DHT22;259;53.304;9.816;2023-05-14T03:42:16;18.10;71.80
546;DHT22;259;53.304;9.816;2023-05-14T03:44:42;18.10;71.80
546;DHT22;259;53.304;9.816;2023-05-14T03:47:07;18.00;71.70
546;DHT22;259;53.304;9.816;2023-05-14T03:49:33;18.00;71.70
546;DHT22;259;53.304;9.816;2023-05-14T03:51:59;18.00;71.80
546;DHT22;259;53.304;9.816;2023-05-14T03:54:25;18.00;71.70
546;DHT22;259;53.304;9.816;2023-05-14T03:56:51;18.00;71.70
546;DHT22;259;53.304;9.816;2023-05-14T03:59:16;18.00;71.80
546;DHT22;259;53.304;9.816;2023-05-14T04:01:43;17.90;71.70
546;DHT22;259;53.304;9.816;2023-05-14T04:04:08;17.90;71.90
546;DHT22;259;53.304;9.816;2023-05-14T04:06:34;17.90;71.90
546;DHT22;259;53.304;9.816;2023-05-14T04:09:00;17.90;72.00
546;DHT22;259;53.304;9.816;2023-05-14T04:11:26;17.90;72.10
546;DHT22;259;53.304;9.816;2023-05-14T04:13:52;17.90;72.10
546;DHT22;259;53.304;9.816;2023-05-14T04:16:18;17.90;72.00
546;DHT22;259;53.304;9.816;2023-05-14T04:18:43;17.90;71.90
546;DHT22;259;53.304;9.816;2023-05-14T04:21:09;17.90;71.90
546;DHT22;259;53.304;9.816;2023-05-14T04:23:35;17.90;71.90
546;DHT22;259;53.304;9.816;2023-05-14T04:26:00;17.80;71.70
546;DHT22;259;53.304;9.816;2023-05-14T04:28:26;17.80;71.70
546;DHT22;259;53.304;9.816;2023-05-14T04:30:52;17.80;71.70
546;DHT22;259;53.304;9.816;2023-05-14T04:33:17;17.80;71.70
546;DHT22;259;53.304;9.816;2023-05-14T04:35:43;17.80;71.80
546;DHT22;259;53.304;9.816;2023-05-14T04:38:10;17.80;71.80
546;DHT22;259;53.304;9.816;2023-05-14T04:40:36;17.80;71.80
546;DHT22;259;53.304;9.816;2023-05-14T04:43:01;17.80;71.80
546;DHT22;259;53.304;9.816;2023-05-14T04:45:27;17.80;71.70
546;DHT22;259;53.304;9.816;2023-05-14T04:47:53;17.70;71.70
546;DHT22;259;53.304;9.816;2023-05-14T04:50:18;17.70;71.70
546;DHT22;259;53.304;9.816;2023-05-14T04:52:44;17.70;71.70
546;DHT22;259;53.304;9.816;2023-05-14T04:55:10;17.70;71.80
546;DHT22;259;53.304;9.816;2023-05-14T04:57:36;17.70;71.80
546;DHT22;259;53.304;9.816;2023-05-14T05:00:02;17.70;71.80
546;DHT22;259;53.304;9.816;2023-05-14T05:02:30;17.60;71.70
546;DHT22;259;53.304;9.816;2023-05-14T05:04:56;17.60;71.80
546;DHT22;259;53.304;9.816;2023-05-14T05:07:22;17.60;71.70
546;DHT22;259;53.304;9.816;2023-05-14T05:09:47;17.60;71.80
546;DHT22;259;53.304;9.816;2023-05-14T05:12:13;17.60;71.80
546;DHT22;259;53.304;9.816;2023-05-14T05:14:38;17.60;71.90
546;DHT22;259;53.304;9.816;2023-05-14T05:17:04;17.60;71.80
546;DHT22;259;53.304;9.816;2023-05-14T05:19:30;17.50;72.40
546;DHT22;259;53.304;9.816;2023-05-14T05:21:56;17.60;73.40
546;DHT22;259;53.304;9.816;2023-05-14T05:24:21;17.60;73.00
546;DHT22;259;53.304;9.816;2023-05-14T05:26:47;17.60;73.10
546;DHT22;259;53.304;9.816;2023-05-14T05:29:14;17.70;74.40
546;DHT22;259;53.304;9.816;2023-05-14T05:31:40;17.70;74.40
546;DHT22;259;53.304;9.816;2023-05-14T05:34:06;17.80;74.40
546;DHT22;259;53.304;9.816;2023-05-14T05:36:31;17.80;75.40
546;DHT22;259;53.304;9.816;2023-05-14T05:38:58;17.80;76.40
546;DHT22;259;53.304;9.816;2023-05-14T05:41:23;17.80;75.50
546;DHT22;259;53.304;9.816;2023-05-14T05:43:49;17.80;75.00
546;DHT22;259;53.304;9.816;2023-05-14T05:46:15;17.80;74.70
546;DHT22;259;53.304;9.816;2023-05-14T05:48:40;17.80;74.60
546;DHT22;259;53.304;9.816;2023-05-14T05:51:06;17.70;74.10
546;DHT22;259;53.304;9.816;2023-05-14T05:53:32;17.80;74.20
546;DHT22;259;53.304;9.816;2023-05-14T05:55:57;17.80;74.10
546;DHT22;259;53.304;9.816;2023-05-14T05:58:23;17.80;73.90
546;DHT22;259;53.304;9.816;2023-05-14T06:00:49;17.80;73.70
546;DHT22;259;53.304;9.816;2023-05-14T06:03:14;17.80;73.80
546;DHT22;259;53.304;9.816;2023-05-14T06:05:40;17.80;73.60
546;DHT22;259;53.304;9.816;2023-05-14T06:08:06;17.70;73.50
546;DHT22;259;53.304;9.816;2023-05-14T06:10:32;17.70;73.50
546;DHT22;259;53.304;9.816;2023-05-14T06:12:58;17.80;73.50
546;DHT22;259;53.304;9.816;2023-05-14T06:15:24;17.70;73.40
546;DHT22;259;53.304;9.816;2023-05-14T06:17:50;17.70;73.40
546;DHT22;259;53.304;9.816;2023-05-14T06:20:15;17.70;73.30
546;DHT22;259;53.304;9.816;2023-05-14T06:22:41;17.70;73.30
546;DHT22;259;53.304;9.816;2023-05-14T06:25:07;17.70;73.30
546;DHT22;259;53.304;9.816;2023-05-14T06:27:33;17.70;73.30
546;DHT22;259;53.304;9.816;2023-05-14T06:29:59;17.70;73.20
546;DHT22;259;53.304;9.816;2023-05-14T06:32:25;17.70;73.10
546;DHT22;259;53.304;9.816;2023-05-14T06:34:51;17.70;73.10
546;DHT22;259;53.304;9.816;2023-05-14T06:37:17;17.70;73.20
546;DHT22;259;53.304;9.816;2023-05-14T06:39:42;17.70;73.10
546;DHT22;259;53.304;9.816;2023-05-14T06:42:14;17.70;73.10
546;DHT22;259;53.304;9.816;2023-05-14T06:44:40;17.70;73.10
546;DHT22;259;53.304;9.816;2023-05-14T06:47:06;17.70;73.10
546;DHT22;259;53.304;9.816;2023-05-14T06:49:33;17.70;73.10
546;DHT22;259;53.304;9.816;2023-05-14T06:51:59;17.70;73.00
546;DHT22;259;53.304;9.816;2023-05-14T06:54:25;17.70;73.00
546;DHT22;259;53.304;9.816;2023-05-14T06:56:51;17.70;73.00
546;DHT22;259;53.304;9.816;2023-05-14T06:59:17;17.70;73.00
546;DHT22;259;53.304;9.816;2023-05-14T07:01:43;17.70;73.00
546;DHT22;259;53.304;9.816;2023-05-14T07:04:09;17.70;73.00
546;DHT22;259;53.304;9.816;2023-05-14T07:06:35;17.70;72.90
546;DHT22;259;53.304;9.816;2023-05-14T07:09:01;17.70;72.80
546;DHT22;259;53.304;9.816;2023-05-14T07:11:26;17.70;72.80
546;DHT22;259;53.304;9.816;2023-05-14T07:13:52;17.70;72.80
546;DHT22;259;53.304;9.816;2023-05-14T07:16:18;17.70;72.80
546;DHT22;259;53.304;9.816;2023-05-14T07:18:44;17.70;72.80
546;DHT22;259;53.304;9.816;2023-05-14T07:21:10;17.70;72.60
546;DHT22;259;53.304;9.816;2023-05-14T07:23:36;17.70;72.70
546;DHT22;259;53.304;9.816;2023-05-14T07:26:04;17.70;73.10
546;DHT22;259;53.304;9.816;2023-05-14T07:28:30;17.70;72.80
546;DHT22;259;53.304;9.816;2023-05-14T07:30:56;17.70;72.60
546;DHT22;259;53.304;9.816;2023-05-14T07:33:22;17.70;72.50
546;DHT22;259;53.304;9.816;2023-05-14T07:35:48;17.70;72.40
546;DHT22;259;53.304;9.816;2023-05-14T07:38:14;17.80;72.50
546;DHT22;259;53.304;9.816;2023-05-14T07:40:40;17.80;73.20
546;DHT22;259;53.304;9.816;2023-05-14T07:43:05;17.90;73.50
546;DHT22;259;53.304;9.816;2023-05-14T07:45:31;17.90;72.90
546;DHT22;259;53.304;9.816;2023-05-14T07:47:57;18.00;72.40
546;DHT22;259;53.304;9.816;2023-05-14T07:50:23;18.00;72.30
546;DHT22;259;53.304;9.816;2023-05-14T07:52:48;17.90;72.40
546;DHT22;259;53.304;9.816;2023-05-14T07:55:14;17.90;72.20
546;DHT22;259;53.304;9.816;2023-05-14T07:57:40;17.90;72.00
546;DHT22;259;53.304;9.816;2023-05-14T08:00:06;17.90;72.20
546;DHT22;259;53.304;9.816;2023-05-14T08:02:32;17.90;72.30
546;DHT22;259;53.304;9.816;2023-05-14T08:04:58;17.90;72.50
546;DHT22;259;53.304;9.816;2023-05-14T08:07:24;17.90;72.60
546;DHT22;259;53.304;9.816;2023-05-14T08:09:51;17.90;72.10
546;DHT22;259;53.304;9.816;2023-05-14T08:12:17;17.90;72.10
546;DHT22;259;53.304;9.816;2023-05-14T08:14:43;17.90;72.50
546;DHT22;259;53.304;9.816;2023-05-14T08:17:08;17.90;72.10
546;DHT22;259;53.304;9.816;2023-05-14T08:19:34;17.90;72.30
546;DHT22;259;53.304;9.816;2023-05-14T08:22:00;17.90;72.40
546;DHT22;259;53.304;9.816;2023-05-14T08:24:25;17.90;73.00
546;DHT22;259;53.304;9.816;2023-05-14T08:26:51;18.00;72.30
546;DHT22;259;53.304;9.816;2023-05-14T08:29:17;18.00;72.30
546;DHT22;259;53.304;9.816;2023-05-14T08:31:43;18.00;72.30
546;DHT22;259;53.304;9.816;2023-05-14T08:34:08;18.00;72.40
546;DHT22;259;53.304;9.816;2023-05-14T08:36:34;18.10;72.60
546;DHT22;259;53.304;9.816;2023-05-14T08:39:00;18.20;72.30
546;DHT22;259;53.304;9.816;2023-05-14T08:41:25;18.20;71.90
546;DHT22;259;53.304;9.816;2023-05-14T08:46:35;18.30;71.70
546;DHT22;259;53.304;9.816;2023-05-14T08:52:02;18.30;71.80
546;DHT22;259;53.304;9.816;2023-05-14T08:54:29;18.20;71.80
546;DHT22;259;53.304;9.816;2023-05-14T08:56:56;18.20;71.90
546;DHT22;259;53.304;9.816;2023-05-14T08:59:23;18.20;71.90
546;DHT22;259;53.304;9.816;2023-05-14T09:01:51;18.30;72.10
546;DHT22;259;53.304;9.816;2023-05-14T09:04:20;18.30;72.00
546;DHT22;259;53.304;9.816;2023-05-14T09:06:51;18.20;71.80
546;DHT22;259;53.304;9.816;2023-05-14T09:09:19;18.20;72.00
546;DHT22;259;53.304;9.816;2023-05-14T09:11:49;18.30;72.20
546;DHT22;259;53.304;9.816;2023-05-14T09:14:16;18.30;72.20
546;DHT22;259;53.304;9.816;2023-05-14T09:16:46;18.30;72.10
546;DHT22;259;53.304;9.816;2023-05-14T09:19:13;18.20;72.20
546;DHT22;259;53.304;9.816;2023-05-14T09:21:40;18.20;72.10
546;DHT22;259;53.304;9.816;2023-05-14T09:24:06;18.20;72.20
546;DHT22;259;53.304;9.816;2023-05-14T09:26:33;18.20;72.30
546;DHT22;259;53.304;9.816;2023-05-14T09:29:00;18.30;72.30
546;DHT22;259;53.304;9.816;2023-05-14T09:31:30;18.30;72.20
546;DHT22;259;53.304;9.816;2023-05-14T09:33:57;18.30;72.30
546;DHT22;259;53.304;9.816;2023-05-14T09:36:24;18.30;72.40
546;DHT22;259;53.304;9.816;2023-05-14T09:38:52;18.20;72.30
546;DHT22;259;53.304;9.816;2023-05-14T09:41:18;18.30;72.60
546;DHT22;259;53.304;9.816;2023-05-14T09:43:45;18.20;72.70
546;DHT22;259;53.304;9.816;2023-05-14T09:46:10;18.20;72.80
546;DHT22;259;53.304;9.816;2023-05-14T09:48:36;18.20;72.80
546;DHT22;259;53.304;9.816;2023-05-14T09:51:02;18.30;72.90
546;DHT22;259;53.304;9.816;2023-05-14T09:53:29;18.30;73.00
546;DHT22;259;53.304;9.816;2023-05-14T09:55:57;18.30;72.90
546;DHT22;259;53.304;9.816;2023-05-14T09:58:22;18.30;73.00
546;DHT22;259;53.304;9.816;2023-05-14T10:00:49;18.30;72.90
546;DHT22;259;53.304;9.816;2023-05-14T10:03:16;18.40;73.00
546;DHT22;259;53.304;9.816;2023-05-14T10:05:43;18.40;72.80
546;DHT22;259;53.304;9.816;2023-05-14T10:08:17;18.40;72.70
546;DHT22;259;53.304;9.816;2023-05-14T10:10:45;18.40;72.90
546;DHT22;259;53.304;9.816;2023-05-14T10:13:14;18.40;72.60
546;DHT22;259;53.304;9.816;2023-05-14T10:15:48;18.40;72.80
546;DHT22;259;53.304;9.816;2023-05-14T10:18:22;18.40;72.80
546;DHT22;259;53.304;9.816;2023-05-14T10:21:05;18.50;72.80
546;DHT22;259;53.304;9.816;2023-05-14T10:23:31;18.50;72.80
546;DHT22;259;53.304;9.816;2023-05-14T10:25:58;18.50;72.80
546;DHT22;259;53.304;9.816;2023-05-14T10:28:24;18.50;72.90
546;DHT22;259;53.304;9.816;2023-05-14T10:30:50;18.50;72.90
546;DHT22;259;53.304;9.816;2023-05-14T10:33:16;18.50;72.90
546;DHT22;259;53.304;9.816;2023-05-14T10:36:05;18.50;72.90
546;DHT22;259;53.304;9.816;2023-05-14T10:38:33;18.60;73.00
546;DHT22;259;53.304;9.816;2023-05-14T10:41:04;18.60;72.90
546;DHT22;259;53.304;9.816;2023-05-14T10:43:39;18.60;72.90
546;DHT22;259;53.304;9.816;2023-05-14T10:46:07;18.60;72.90
546;DHT22;259;53.304;9.816;2023-05-14T10:48:33;18.60;72.80
546;DHT22;259;53.304;9.816;2023-05-14T10:51:07;18.60;72.80
546;DHT22;259;53.304;9.816;2023-05-14T10:53:36;18.60;72.90
546;DHT22;259;53.304;9.816;2023-05-14T10:56:06;18.60;72.90
546;DHT22;259;53.304;9.816;2023-05-14T10:58:41;18.60;73.70
546;DHT22;259;53.304;9.816;2023-05-14T11:01:09;18.60;73.00
546;DHT22;259;53.304;9.816;2023-05-14T11:03:43;18.60;73.80
546;DHT22;259;53.304;9.816;2023-05-14T11:06:12;18.60;73.00
546;DHT22;259;53.304;9.816;2023-05-14T11:08:39;18.60;73.00
546;DHT22;259;53.304;9.816;2023-05-14T11:11:07;18.60;73.00
546;DHT22;259;53.304;9.816;2023-05-14T11:13:33;18.70;73.20
546;DHT22;259;53.304;9.816;2023-05-14T11:16:00;18.70;73.20
546;DHT22;259;53.304;9.816;2023-05-14T11:18:27;18.70;73.40
546;DHT22;259;53.304;9.816;2023-05-14T11:21:00;18.70;73.30
546;DHT22;259;53.304;9.816;2023-05-14T11:23:26;18.70;73.30
546;DHT22;259;53.304;9.816;2023-05-14T11:25:53;18.70;73.20
546;DHT22;259;53.304;9.816;2023-05-14T11:28:21;18.70;73.30
546;DHT22;259;53.304;9.816;2023-05-14T11:30:52;18.70;73.30
546;DHT22;259;53.304;9.816;2023-05-14T11:33:18;18.80;73.50
546;DHT22;259;53.304;9.816;2023-05-14T11:35:45;18.80;73.50
546;DHT22;259;53.304;9.816;2023-05-14T11:38:16;18.80;73.40
546;DHT22;259;53.304;9.816;2023-05-14T11:40:54;18.80;73.50
546;DHT22;259;53.304;9.816;2023-05-14T11:43:20;18.90;73.40
546;DHT22;259;53.304;9.816;2023-05-14T11:45:50;18.90;73.50
546;DHT22;259;53.304;9.816;2023-05-14T11:48:17;18.90;74.20
546;DHT22;259;53.304;9.816;2023-05-14T11:50:48;19.00;73.60
546;DHT22;259;53.304;9.816;2023-05-14T11:53:28;19.00;73.50
546;DHT22;259;53.304;9.816;2023-05-14T11:55:54;19.00;73.40
546;DHT22;259;53.304;9.816;2023-05-14T11:58:22;19.00;73.50
546;DHT22;259;53.304;9.816;2023-05-14T12:00:52;19.00;73.40
546;DHT22;259;53.304;9.816;2023-05-14T12:03:18;19.00;73.50
546;DHT22;259;53.304;9.816;2023-05-14T12:06:00;19.00;73.40
546;DHT22;259;53.304;9.816;2023-05-14T12:08:28;19.00;73.40
546;DHT22;259;53.304;9.816;2023-05-14T12:10:55;19.10;73.40
546;DHT22;259;53.304;9.816;2023-05-14T12:13:25;19.10;73.40
546;DHT22;259;53.304;9.816;2023-05-14T12:15:59;19.10;73.50
546;DHT22;259;53.304;9.816;2023-05-14T12:18:27;19.10;73.40
546;DHT22;259;53.304;9.816;2023-05-14T12:20:54;19.10;73.50
546;DHT22;259;53.304;9.816;2023-05-14T12:23:30;19.20;73.90
546;DHT22;259;53.304;9.816;2023-05-14T12:26:07;19.20;74.00
546;DHT22;259;53.304;9.816;2023-05-14T12:28:34;19.20;74.50
546;DHT22;259;53.304;9.816;2023-05-14T12:31:00;19.20;74.10
546;DHT22;259;53.304;9.816;2023-05-14T12:33:26;19.20;74.10
546;DHT22;259;53.304;9.816;2023-05-14T12:35:52;19.20;74.10
546;DHT22;259;53.304;9.816;2023-05-14T12:38:18;19.20;73.90
546;DHT22;259;53.304;9.816;2023-05-14T12:40:44;19.20;73.90
546;DHT22;259;53.304;9.816;2023-05-14T12:43:10;19.20;73.90
546;DHT22;259;53.304;9.816;2023-05-14T12:45:36;19.20;73.70
546;DHT22;259;53.304;9.816;2023-05-14T12:48:01;19.20;73.60
546;DHT22;259;53.304;9.816;2023-05-14T12:50:27;19.20;73.70
546;DHT22;259;53.304;9.816;2023-05-14T12:52:53;19.20;73.60
546;DHT22;259;53.304;9.816;2023-05-14T12:55:19;19.30;73.80
546;DHT22;259;53.304;9.816;2023-05-14T12:57:45;19.30;73.80
546;DHT22;259;53.304;9.816;2023-05-14T13:00:10;19.30;73.70
546;DHT22;259;53.304;9.816;2023-05-14T13:02:36;19.30;73.70
546;DHT22;259;53.304;9.816;2023-05-14T13:05:02;19.30;73.70
546;DHT22;259;53.304;9.816;2023-05-14T13:07:29;19.30;73.80
546;DHT22;259;53.304;9.816;2023-05-14T13:09:55;19.30;73.90
546;DHT22;259;53.304;9.816;2023-05-14T13:12:22;19.30;73.90
546;DHT22;259;53.304;9.816;2023-05-14T13:14:48;19.30;73.70
546;DHT22;259;53.304;9.816;2023-05-14T13:17:14;19.30;73.90
546;DHT22;259;53.304;9.816;2023-05-14T13:19:40;19.30;73.80
546;DHT22;259;53.304;9.816;2023-05-14T13:22:05;19.30;73.80
546;DHT22;259;53.304;9.816;2023-05-14T13:24:31;19.30;73.70
546;DHT22;259;53.304;9.816;2023-05-14T13:26:57;19.30;73.70
546;DHT22;259;53.304;9.816;2023-05-14T13:29:22;19.30;73.70
546;DHT22;259;53.304;9.816;2023-05-14T13:31:48;19.30;73.50
546;DHT22;259;53.304;9.816;2023-05-14T13:34:14;19.30;73.50
546;DHT22;259;53.304;9.816;2023-05-14T13:36:41;19.30;73.40
546;DHT22;259;53.304;9.816;2023-05-14T13:39:08;19.40;73.50
546;DHT22;259;53.304;9.816;2023-05-14T13:41:36;19.40;73.50
546;DHT22;259;53.304;9.816;2023-05-14T13:44:02;19.40;73.60
546;DHT22;259;53.304;9.816;2023-05-14T13:46:28;19.40;73.50
546;DHT22;259;53.304;9.816;2023-05-14T13:48:54;19.40;73.50
546;DHT22;259;53.304;9.816;2023-05-14T13:51:21;19.40;73.50
546;DHT22;259;53.304;9.816;2023-05-14T13:53:48;19.40;73.50
546;DHT22;259;53.304;9.816;2023-05-14T13:56:13;19.40;73.50
546;DHT22;259;53.304;9.816;2023-05-14T13:58:39;19.40;73.50
546;DHT22;259;53.304;9.816;2023-05-14T14:01:05;19.40;73.40
546;DHT22;259;53.304;9.816;2023-05-14T14:03:30;19.40;73.40
546;DHT22;259;53.304;9.816;2023-05-14T14:05:56;19.40;73.40
546;DHT22;259;53.304;9.816;2023-05-14T14:08:22;19.40;73.30
546;DHT22;259;53.304;9.816;2023-05-14T14:10:47;19.40;73.30
546;DHT22;259;53.304;9.816;2023-05-14T14:13:13;19.40;73.30
546;DHT22;259;53.304;9.816;2023-05-14T14:15:39;19.50;73.40
546;DHT22;259;53.304;9.816;2023-05-14T14:18:05;19.50;73.50
546;DHT22;259;53.304;9.816;2023-05-14T14:20:31;19.50;73.40
546;DHT22;259;53.304;9.816;2023-05-14T14:22:58;19.60;73.40
546;DHT22;259;53.304;9.816;2023-05-14T14:25:24;19.70;73.30
546;DHT22;259;53.304;9.816;2023-05-14T14:27:50;19.80;73.30
546;DHT22;259;53.304;9.816;2023-05-14T14:30:15;19.90;73.50
546;DHT22;259;53.304;9.816;2023-05-14T14:32:50;20.00;73.40
546;DHT22;259;53.304;9.816;2023-05-14T14:35:17;20.10;72.70
546;DHT22;259;53.304;9.816;2023-05-14T14:37:44;20.20;72.00
546;DHT22;259;53.304;9.816;2023-05-14T14:40:14;20.20;71.60
546;DHT22;259;53.304;9.816;2023-05-14T14:42:40;20.30;71.70
546;DHT22;259;53.304;9.816;2023-05-14T14:45:07;20.40;71.70
546;DHT22;259;53.304;9.816;2023-05-14T14:47:33;20.40;71.50
546;DHT22;259;53.304;9.816;2023-05-14T14:49:59;20.40;71.40
546;DHT22;259;53.304;9.816;2023-05-14T14:52:25;20.40;71.30
546;DHT22;259;53.304;9.816;2023-05-14T14:54:52;20.40;71.30
546;DHT22;259;53.304;9.816;2023-05-14T14:57:19;20.50;71.40
546;DHT22;259;53.304;9.816;2023-05-14T14:59:46;20.40;71.30
546;DHT22;259;53.304;9.816;2023-05-14T15:02:12;20.40;71.40
546;DHT22;259;53.304;9.816;2023-05-14T15:04:37;20.40;71.40
546;DHT22;259;53.304;9.816;2023-05-14T15:07:03;20.40;71.30
546;DHT22;259;53.304;9.816;2023-05-14T15:09:30;20.40;71.40
546;DHT22;259;53.304;9.816;2023-05-14T15:11:56;20.40;71.50
546;DHT22;259;53.304;9.816;2023-05-14T15:14:22;20.40;71.60
546;DHT22;259;53.304;9.816;2023-05-14T15:16:47;20.40;71.70
546;DHT22;259;53.304;9.816;2023-05-14T15:19:13;20.40;71.70
546;DHT22;259;53.304;9.816;2023-05-14T15:21:39;20.40;71.70
546;DHT22;259;53.304;9.816;2023-05-14T15:24:05;20.40;71.90
546;DHT22;259;53.304;9.816;2023-05-14T15:26:31;20.40;71.70
546;DHT22;259;53.304;9.816;2023-05-14T15:28:58;20.40;71.70
546;DHT22;259;53.304;9.816;2023-05-14T15:31:23;20.40;71.70
546;DHT22;259;53.304;9.816;2023-05-14T15:33:51;20.50;72.90
546;DHT22;259;53.304;9.816;2023-05-14T15:36:18;20.50;72.60
546;DHT22;259;53.304;9.816;2023-05-14T15:38:43;20.40;72.10
546;DHT22;259;53.304;9.816;2023-05-14T15:41:09;20.50;72.20
546;DHT22;259;53.304;9.816;2023-05-14T15:43:35;20.50;71.90
546;DHT22;259;53.304;9.816;2023-05-14T15:46:01;20.50;72.00
546;DHT22;259;53.304;9.816;2023-05-14T15:48:27;20.50;71.80
546;DHT22;259;53.304;9.816;2023-05-14T15:50:53;20.50;72.00
546;DHT22;259;53.304;9.816;2023-05-14T15:53:19;20.50;71.80
546;DHT22;259;53.304;9.816;2023-05-14T15:55:47;20.50;71.80
546;DHT22;259;53.304;9.816;2023-05-14T15:58:13;20.50;71.80
546;DHT22;259;53.304;9.816;2023-05-14T16:00:39;20.50;71.90
546;DHT22;259;53.304;9.816;2023-05-14T16:03:04;20.50;72.00
546;DHT22;259;53.304;9.816;2023-05-14T16:05:30;20.50;71.90
546;DHT22;259;53.304;9.816;2023-05-14T16:07:56;20.50;71.90
546;DHT22;259;53.304;9.816;2023-05-14T16:10:23;20.50;71.90
546;DHT22;259;53.304;9.816;2023-05-14T16:12:48;20.50;71.90
546;DHT22;259;53.304;9.816;2023-05-14T16:15:14;20.50;72.00
546;DHT22;259;53.304;9.816;2023-05-14T16:17:40;20.50;72.10
546;DHT22;259;53.304;9.816;2023-05-14T16:20:06;20.60;72.20
546;DHT22;259;53.304;9.816;2023-05-14T16:22:32;20.60;72.20
546;DHT22;259;53.304;9.816;2023-05-14T16:24:59;20.60;72.20
546;DHT22;259;53.304;9.816;2023-05-14T16:27:25;20.60;72.20
546;DHT22;259;53.304;9.816;2023-05-14T16:29:51;20.50;72.10
546;DHT22;259;53.304;9.816;2023-05-14T16:32:17;20.60;72.10
546;DHT22;259;53.304;9.816;2023-05-14T16:34:43;20.60;72.20
546;DHT22;259;53.304;9.816;2023-05-14T16:37:17;20.60;72.20
546;DHT22;259;53.304;9.816;2023-05-14T16:39:46;20.60;72.10
546;DHT22;259;53.304;9.816;2023-05-14T16:42:12;20.60;72.30